Time;durP1;ratioP1;P1;durP2;ratioP2;P2;SDS_P1;SDS_P2;PMS_P1;PMS_P2;Temp;Humidity;BMP_temperature;BMP_pressure;BME280_temperature;BME280_humidity;BME280_pressure;Samples;Min_cycle;Max_cycle;Signal;HPM_P1;HPM_P2
2021/01/07 00:01:46;;;;;;;226.30;109.92;;;;;;;1.24;76.98;93929.22;1730273;83;21090;-50
2021/01/07 00:04:14;;;;;;;236.28;113.05;;;;;;;1.22;77.11;93915.89;1716354;83;21135;-51
2021/01/07 00:06:42;;;;;;;237.30;118.87;;;;;;;1.21;77.00;93910.30;1728536;83;21162;-50
2021/01/07 00:09:10;;;;;;;240.55;118.50;;;;;;;1.17;76.96;93913.05;1711029;83;22118;-50
2021/01/07 00:11:42;;;;;;;306.80;151.60;;;;;;;1.16;76.99;93923.70;1777637;80;21098;-51
2021/01/07 00:14:10;;;;;;;305.40;149.90;;;;;;;1.15;77.11;93920.81;1777696;80;21115;-50
2021/01/07 00:16:38;;;;;;;316.55;154.72;;;;;;;1.12;77.05;93915.46;1777653;80;21090;-51
2021/01/07 00:19:06;;;;;;;317.68;160.88;;;;;;;1.13;76.92;93916.99;1777655;80;21067;-52
2021/01/07 00:21:34;;;;;;;321.65;159.87;;;;;;;1.08;76.62;93901.96;1777650;80;21166;-50
2021/01/07 00:24:02;;;;;;;311.82;156.22;;;;;;;1.01;76.70;93906.13;1782636;76;21240;-51
2021/01/07 00:26:30;;;;;;;302.07;152.85;;;;;;;0.96;76.62;93905.80;1806293;79;21064;-51
2021/01/07 00:28:58;;;;;;;311.65;152.32;;;;;;;0.90;76.94;93903.35;1822077;78;21119;-50
2021/01/07 00:31:27;;;;;;;247.37;123.65;;;;;;;0.90;77.15;93909.55;1806419;79;21084;-49
2021/01/07 00:33:56;;;;;;;204.40;106.12;;;;;;;0.95;77.18;93918.56;1822090;78;21202;-51
2021/01/07 00:36:24;;;;;;;229.05;114.25;;;;;;;0.92;77.01;93906.45;1822039;78;21539;-51
2021/01/07 00:38:53;;;;;;;215.18;110.95;;;;;;;0.91;76.94;93899.47;1806343;78;21572;-51
2021/01/07 00:41:20;;;;;;;276.67;133.47;;;;;;;0.91;77.18;93897.55;1822154;78;21059;-51
2021/01/07 00:43:49;;;;;;;286.65;148.22;;;;;;;0.96;77.04;93891.67;1822107;78;21044;-50
2021/01/07 00:46:18;;;;;;;305.55;154.00;;;;;;;0.95;76.91;93902.32;1822067;78;21142;-50
2021/01/07 00:48:49;;;;;;;272.88;134.85;;;;;;;0.90;77.16;93901.42;1806275;79;21083;-49
2021/01/07 00:51:18;;;;;;;239.30;127.25;;;;;;;0.90;77.18;93912.83;1822235;78;21080;-49
2021/01/07 00:53:46;;;;;;;226.30;114.67;;;;;;;0.86;77.28;93909.41;1806322;79;21064;-52
2021/01/07 00:56:15;;;;;;;226.70;114.40;;;;;;;0.83;77.45;93908.30;1822090;78;21051;-51
2021/01/07 00:58:45;;;;;;;245.27;119.08;;;;;;;0.82;77.61;93910.82;1806371;79;21206;-50
2021/01/07 01:01:13;;;;;;;285.17;139.50;;;;;;;0.79;77.35;93904.84;1822012;78;21158;-52
2021/01/07 01:03:40;;;;;;;287.00;138.52;;;;;;;0.68;77.30;93909.63;1806325;79;21159;-52
2021/01/07 01:06:08;;;;;;;298.50;146.40;;;;;;;0.58;77.56;93901.03;1822025;78;21080;-50
2021/01/07 01:08:36;;;;;;;328.90;162.22;;;;;;;0.53;77.77;93905.55;1806342;79;21084;-50
2021/01/07 01:11:06;;;;;;;331.73;153.62;;;;;;;0.49;78.00;93906.75;1822163;78;22242;-51
2021/01/07 01:13:33;;;;;;;325.55;155.97;;;;;;;0.48;78.19;93883.00;1806286;79;21131;-51
2021/01/07 01:16:03;;;;;;;311.62;147.82;;;;;;;0.49;78.38;93884.54;1822026;78;21160;-52
2021/01/07 01:18:31;;;;;;;286.10;141.25;;;;;;;0.58;78.60;93883.45;1806333;79;21178;-50
2021/01/07 01:21:00;;;;;;;308.80;148.15;;;;;;;0.67;78.38;93877.55;1822108;78;21182;-52
2021/01/07 01:23:27;;;;;;;310.75;149.40;;;;;;;0.69;78.13;93885.45;1806308;79;21303;-52
2021/01/07 01:25:56;;;;;;;324.45;153.20;;;;;;;0.70;78.19;93882.92;1821983;78;21067;-51
2021/01/07 01:28:23;;;;;;;257.18;127.72;;;;;;;0.71;78.33;93882.33;1806578;78;21116;-51
2021/01/07 01:30:51;;;;;;;265.87;132.37;;;;;;;0.75;78.65;93884.42;1822232;78;21167;-51
2021/01/07 01:33:20;;;;;;;261.43;131.95;;;;;;;0.81;78.35;93886.25;1822338;78;21483;-51
2021/01/07 01:35:48;;;;;;;260.38;126.62;;;;;;;0.80;78.08;93888.78;1806497;79;21160;-51
2021/01/07 01:38:16;;;;;;;274.12;137.12;;;;;;;0.77;77.89;93869.90;1822271;78;21068;-51
2021/01/07 01:40:44;;;;;;;275.62;134.65;;;;;;;0.75;77.96;93863.53;1806516;79;21108;-51
2021/01/07 01:43:12;;;;;;;263.80;131.30;;;;;;;0.77;78.03;93861.17;1822241;78;21127;-51
2021/01/07 01:45:40;;;;;;;270.63;138.10;;;;;;;0.83;78.13;93871.75;1806513;79;21461;-50
2021/01/07 01:48:09;;;;;;;290.43;145.65;;;;;;;0.88;78.13;93875.92;1822190;78;22148;-50
2021/01/07 01:50:37;;;;;;;291.85;147.85;;;;;;;0.90;77.94;93854.62;1806421;79;21092;-50
2021/01/07 01:53:05;;;;;;;271.07;138.18;;;;;;;0.91;78.00;93851.52;1822182;78;21111;-52
2021/01/07 01:55:33;;;;;;;269.23;132.63;;;;;;;0.93;77.81;93851.88;1806472;79;21123;-50
2021/01/07 01:58:01;;;;;;;263.02;130.90;;;;;;;0.98;77.73;93850.06;1822243;78;21267;-51
2021/01/07 02:00:29;;;;;;;252.20;129.23;;;;;;;1.04;77.59;93841.68;1806461;78;21448;-50
2021/01/07 02:02:58;;;;;;;263.02;135.35;;;;;;;1.07;77.47;93834.09;1822138;78;21068;-50
2021/01/07 02:05:26;;;;;;;312.02;146.62;;;;;;;1.12;77.27;93833.62;1806455;78;21052;-49
2021/01/07 02:07:54;;;;;;;283.93;136.43;;;;;;;1.14;77.10;93828.55;1822032;78;21095;-50
2021/01/07 02:10:23;;;;;;;263.87;133.05;;;;;;;1.16;77.01;93824.84;1792977;78;21123;-51
2021/01/07 02:12:51;;;;;;;254.90;127.05;;;;;;;1.12;76.78;93817.98;1752456;79;21381;-50
2021/01/07 02:15:21;;;;;;;246.93;125.20;;;;;;;1.07;76.83;93821.91;1822190;78;21130;-51
2021/01/07 02:17:49;;;;;;;242.13;124.22;;;;;;;1.06;76.82;93816.31;1806440;79;21044;-50
2021/01/07 02:20:26;;;;;;;239.95;119.28;;;;;;;1.07;76.88;93817.84;1822193;78;21072;-50
2021/01/07 02:22:54;;;;;;;226.67;119.22;;;;;;;1.10;77.00;93818.38;1806478;79;21111;-51
2021/01/07 02:25:24;;;;;;;234.98;119.47;;;;;;;1.13;76.74;93810.78;1821449;78;21200;-51
2021/01/07 02:27:52;;;;;;;264.38;134.78;;;;;;;1.08;76.59;93809.89;1806359;79;21079;-51
2021/01/07 02:30:21;;;;;;;290.65;145.12;;;;;;;1.02;76.57;93811.55;1822219;78;21393;-51
2021/01/07 02:32:49;;;;;;;288.93;140.45;;;;;;;0.96;76.79;93811.05;1806549;79;21502;-51
2021/01/07 02:35:18;;;;;;;272.35;137.57;;;;;;;0.90;76.89;93808.03;1822211;78;21035;-49
2021/01/07 02:37:46;;;;;;;229.20;115.90;;;;;;;0.91;76.93;93791.97;1806385;79;21382;-50
2021/01/07 02:40:15;;;;;;;243.05;124.20;;;;;;;0.89;76.77;93797.03;1822180;78;21488;-50
2021/01/07 02:42:44;;;;;;;280.67;139.82;;;;;;;0.90;77.07;93790.44;1822166;78;21111;-50
2021/01/07 02:45:13;;;;;;;281.93;142.45;;;;;;;0.93;76.79;93787.51;1806434;79;21159;-51
2021/01/07 02:47:40;;;;;;;276.65;134.27;;;;;;;0.89;76.91;93783.48;1822133;78;21036;-50
2021/01/07 02:50:10;;;;;;;271.80;134.97;;;;;;;0.89;76.97;93787.55;1806400;79;21137;-49
2021/01/07 02:52:38;;;;;;;306.20;154.23;;;;;;;0.92;76.99;93786.73;1822118;78;21198;-51
2021/01/07 02:55:07;;;;;;;289.98;146.85;;;;;;;0.94;76.99;93784.98;1806414;79;21064;-49
2021/01/07 02:57:35;;;;;;;282.50;134.70;;;;;;;0.95;77.04;93783.20;1822273;78;21548;-50
2021/01/07 03:00:05;;;;;;;370.60;175.00;;;;;;;0.94;76.91;93776.86;1806527;78;21127;-49
2021/01/07 03:02:33;;;;;;;329.87;150.57;;;;;;;0.85;77.03;93775.23;1822129;78;21201;-52
2021/01/07 03:05:02;;;;;;;251.65;128.45;;;;;;;0.80;77.23;93773.75;1806300;78;21591;-52
2021/01/07 03:07:29;;;;;;;268.95;136.10;;;;;;;0.71;77.22;93777.56;1821961;78;21107;-50
2021/01/07 03:09:58;;;;;;;265.20;129.65;;;;;;;0.62;77.44;93775.19;1806449;79;21055;-50
2021/01/07 03:12:26;;;;;;;266.70;139.22;;;;;;;0.60;77.91;93771.52;1822172;78;21083;-52
2021/01/07 03:14:53;;;;;;;259.73;134.03;;;;;;;0.64;78.17;93764.14;1806398;79;21382;-51
2021/01/07 03:17:22;;;;;;;243.65;125.78;;;;;;;0.79;78.33;93769.52;1822169;78;21543;-51
2021/01/07 03:19:50;;;;;;;228.45;119.10;;;;;;;0.89;77.87;93765.89;1806419;79;21081;-51
2021/01/07 03:22:18;;;;;;;233.80;120.82;;;;;;;0.82;77.66;93764.66;1822152;78;21532;-50
2021/01/07 03:24:45;;;;;;;275.52;136.95;;;;;;;0.76;77.87;93771.69;1806417;78;21111;-49
2021/01/07 03:27:13;;;;;;;244.00;122.75;;;;;;;0.70;77.96;93767.91;1822063;78;21444;-51
2021/01/07 03:29:41;;;;;;;250.72;122.42;;;;;;;0.70;78.01;93767.91;1822074;78;21163;-51
2021/01/07 03:32:09;;;;;;;252.38;128.07;;;;;;;0.66;77.94;93765.86;1806361;79;21075;-52
2021/01/07 03:34:37;;;;;;;256.07;130.35;;;;;;;0.59;78.07;93768.64;1822221;78;21107;-52
2021/01/07 03:37:04;;;;;;;256.35;131.60;;;;;;;0.59;78.22;93769.24;1822168;78;21123;-51
2021/01/07 03:39:33;;;;;;;258.10;127.15;;;;;;;0.61;78.61;93759.52;1806494;79;21339;-49
2021/01/07 03:42:01;;;;;;;232.18;125.00;;;;;;;0.75;78.79;93763.39;1822043;78;21170;-50
2021/01/07 03:44:29;;;;;;;253.42;129.42;;;;;;;0.86;78.44;93759.95;1806343;79;21049;-51
2021/01/07 03:46:57;;;;;;;254.75;129.93;;;;;;;0.87;78.25;93753.36;1822101;78;21071;-52
2021/01/07 03:49:26;;;;;;;253.50;130.32;;;;;;;0.90;78.47;93751.19;1822131;78;21059;-52
2021/01/07 03:51:54;;;;;;;243.85;123.53;;;;;;;0.95;78.30;93746.66;1806474;79;23504;-52
2021/01/07 03:54:22;;;;;;;231.50;121.65;;;;;;;0.94;78.32;93737.61;1822061;78;21175;-51
2021/01/07 03:56:50;;;;;;;236.55;124.90;;;;;;;0.94;78.41;93738.36;1822149;78;21048;-50
2021/01/07 03:59:18;;;;;;;258.55;130.43;;;;;;;1.00;78.50;93744.08;1806360;79;21084;-50
2021/01/07 04:01:46;;;;;;;223.32;117.67;;;;;;;1.05;78.42;93732.20;1822141;78;21099;-49
2021/01/07 04:04:14;;;;;;;231.35;118.42;;;;;;;1.10;78.49;93745.86;1806381;79;21202;-51
2021/01/07 04:06:42;;;;;;;216.50;118.45;;;;;;;1.19;78.70;93750.16;1822026;78;21152;-51
2021/01/07 04:09:10;;;;;;;191.43;104.85;;;;;;;1.34;78.61;93752.20;1808776;79;21473;-49
2021/01/07 04:11:38;;;;;;;171.55;96.70;;;;;;;1.45;78.32;93755.51;1822042;78;21064;-51
2021/01/07 04:14:05;;;;;;;185.67;100.60;;;;;;;1.45;78.20;93746.03;1809533;79;21516;-50
2021/01/07 04:16:33;;;;;;;167.55;91.90;;;;;;;1.44;78.29;93745.85;1822056;78;21384;-50
2021/01/07 04:19:01;;;;;;;154.57;83.87;;;;;;;1.46;78.52;93743.49;1809423;79;21162;-52
2021/01/07 04:21:29;;;;;;;132.72;79.22;;;;;;;1.56;78.52;93745.27;1822087;78;21060;-53
2021/01/07 04:23:57;;;;;;;148.00;86.45;;;;;;;1.65;78.46;93744.72;1809498;79;21052;-50
2021/01/07 04:26:25;;;;;;;161.32;91.42;;;;;;;1.69;78.20;93743.45;1822077;78;21194;-50
2021/01/07 04:28:52;;;;;;;182.30;98.47;;;;;;;1.71;78.07;93743.80;1809492;79;21380;-51
2021/01/07 04:31:20;;;;;;;208.57;111.37;;;;;;;1.67;77.95;93743.11;1822019;78;21511;-51
2021/01/07 04:33:48;;;;;;;226.73;119.87;;;;;;;1.63;77.95;93745.70;1809466;79;21068;-52
2021/01/07 04:36:16;;;;;;;228.40;123.53;;;;;;;1.62;78.06;93746.88;1822118;78;21087;-50
2021/01/07 04:38:44;;;;;;;233.60;125.82;;;;;;;1.62;78.08;93740.89;1809474;79;21136;-51
2021/01/07 04:41:12;;;;;;;221.75;118.60;;;;;;;1.66;78.07;93736.16;1822103;78;21357;-50
2021/01/07 04:43:40;;;;;;;204.40;110.68;;;;;;;1.70;78.09;93734.75;1757831;79;21071;-50
2021/01/07 04:46:08;;;;;;;223.20;120.53;;;;;;;1.77;78.12;93738.10;1822071;78;21068;-52
2021/01/07 04:48:36;;;;;;;209.27;113.80;;;;;;;1.85;78.20;93732.70;1809542;79;21580;-51
2021/01/07 04:51:05;;;;;;;201.32;107.37;;;;;;;1.99;78.25;93738.61;1822075;78;21114;-51
2021/01/07 04:53:33;;;;;;;188.10;102.85;;;;;;;2.16;78.24;93729.36;1809454;79;21189;-50
2021/01/07 04:56:01;;;;;;;179.68;98.45;;;;;;;2.34;77.95;93735.80;1808853;79;21068;-50
2021/01/07 04:58:30;;;;;;;165.05;94.42;;;;;;;2.49;77.62;93735.68;1822043;78;21075;-51
2021/01/07 05:00:59;;;;;;;187.90;104.87;;;;;;;2.58;77.12;93733.92;1822097;78;21060;-50
2021/01/07 05:03:32;;;;;;;192.35;102.35;;;;;;;2.54;76.59;93734.57;1809470;79;21051;-51
2021/01/07 05:05:59;;;;;;;179.50;97.62;;;;;;;2.49;76.47;93735.08;1822083;78;21213;-50
2021/01/07 05:08:28;;;;;;;175.15;100.65;;;;;;;2.48;76.65;93731.44;1808206;79;21847;-50
2021/01/07 05:10:57;;;;;;;166.32;95.42;;;;;;;2.46;76.48;93723.70;1822077;78;21095;-49
2021/01/07 05:13:24;;;;;;;160.37;90.38;;;;;;;2.43;76.39;93720.48;1806416;79;21544;-51
2021/01/07 05:15:52;;;;;;;154.60;88.22;;;;;;;2.36;76.35;93718.51;1822058;78;21116;-51
2021/01/07 05:18:20;;;;;;;160.72;92.90;;;;;;;2.29;76.53;93713.24;1806281;79;21262;-49
2021/01/07 05:20:48;;;;;;;164.57;94.17;;;;;;;2.29;76.69;93706.45;1821991;78;21067;-50
2021/01/07 05:23:18;;;;;;;167.60;94.90;;;;;;;2.32;76.69;93706.97;1822047;78;21079;-50
2021/01/07 05:25:47;;;;;;;155.43;92.25;;;;;;;2.33;76.71;93708.50;1753367;79;21970;-50
2021/01/07 05:28:15;;;;;;;152.95;92.02;;;;;;;2.37;76.67;93710.53;1822050;78;21115;-50
2021/01/07 05:30:42;;;;;;;152.68;89.47;;;;;;;2.36;76.71;93713.08;1806261;79;21346;-50
2021/01/07 05:33:10;;;;;;;149.05;90.57;;;;;;;2.35;76.93;93703.41;1766915;78;21163;-51
2021/01/07 05:35:40;;;;;;;197.80;107.83;;;;;;;2.33;76.85;93708.50;1806320;79;21052;-49
2021/01/07 05:38:08;;;;;;;185.32;105.52;;;;;;;2.31;76.93;93706.80;1822090;78;21044;-49
2021/01/07 05:40:36;;;;;;;156.67;94.85;;;;;;;2.28;76.78;93708.97;1806352;79;21043;-50
2021/01/07 05:43:11;;;;;;;143.65;86.53;;;;;;;2.25;76.90;93709.81;1792639;78;21154;-50
2021/01/07 05:45:40;;;;;;;205.67;119.97;;;;;;;2.23;76.88;93723.81;1792574;78;21256;-50
2021/01/07 05:48:08;;;;;;;194.28;111.45;;;;;;;2.18;76.99;93719.47;1806406;79;21511;-49
2021/01/07 05:50:40;;;;;;;204.23;120.37;;;;;;;2.09;77.10;93720.60;1803562;79;21056;-50
2021/01/07 05:53:08;;;;;;;211.90;119.67;;;;;;;2.02;77.10;93709.91;1822210;78;21985;-53
2021/01/07 05:55:36;;;;;;;213.10;117.00;;;;;;;1.95;77.33;93715.48;1806322;79;21376;-51
2021/01/07 05:58:04;;;;;;;219.20;117.75;;;;;;;1.94;77.56;93707.92;1822088;78;21175;-50
2021/01/07 06:00:33;;;;;;;190.47;111.00;;;;;;;2.00;77.61;93695.39;1777570;79;21159;-50
2021/01/07 06:03:04;;;;;;;176.00;103.30;;;;;;;2.05;77.55;93699.00;1822132;78;21654;-54
2021/01/07 06:05:32;;;;;;;203.67;117.42;;;;;;;2.02;77.51;93704.48;1806375;78;21159;-50
2021/01/07 06:08:01;;;;;;;190.92;112.10;;;;;;;1.95;77.67;93712.77;1821948;78;21370;-51
2021/01/07 06:10:29;;;;;;;189.03;109.72;;;;;;;1.95;78.08;93699.96;1825076;78;21056;-51
2021/01/07 06:12:58;;;;;;;189.03;111.90;;;;;;;2.07;78.17;93706.70;1809527;79;21044;-50
2021/01/07 06:15:26;;;;;;;203.62;126.05;;;;;;;2.15;77.79;93698.61;1822194;78;21075;-50
2021/01/07 06:17:53;;;;;;;208.35;123.67;;;;;;;2.17;77.95;93697.59;1809571;79;21107;-51
2021/01/07 06:20:22;;;;;;;189.30;110.08;;;;;;;2.24;77.96;93698.80;1822235;78;21216;-50
2021/01/07 06:22:52;;;;;;;178.05;106.20;;;;;;;2.31;77.68;93702.73;1809592;79;21064;-50
2021/01/07 06:25:22;;;;;;;176.22;106.43;;;;;;;2.35;77.56;93689.84;1822189;78;21076;-51
2021/01/07 06:27:51;;;;;;;172.60;105.65;;;;;;;2.37;77.69;93695.03;1809646;79;21049;-50
2021/01/07 06:30:25;;;;;;;167.28;98.58;;;;;;;2.41;77.62;93686.22;1822188;78;21055;-50
2021/01/07 06:33:05;;;;;;;162.18;97.88;;;;;;;2.47;77.51;93690.56;1809615;79;21197;-51
2021/01/07 06:35:40;;;;;;;171.75;102.25;;;;;;;2.50;77.51;93692.43;1821295;78;22451;-51
2021/01/07 06:38:13;;;;;;;175.12;105.75;;;;;;;2.60;77.53;93696.84;1821783;78;21063;-50
2021/01/07 06:40:42;;;;;;;178.10;107.80;;;;;;;2.68;77.35;93696.88;1809608;79;21079;-50
2021/01/07 06:43:15;;;;;;;183.20;109.95;;;;;;;2.74;77.15;93694.59;1822215;78;21075;-50
2021/01/07 06:45:51;;;;;;;189.72;110.32;;;;;;;2.76;76.95;93698.23;1822299;78;21181;-52
2021/01/07 06:48:33;;;;;;;208.53;116.80;;;;;;;2.74;76.84;93700.60;1822121;78;21092;-50
2021/01/07 06:51:03;;;;;;;195.35;114.57;;;;;;;2.72;76.77;93700.27;1821618;78;21142;-50
2021/01/07 06:53:36;;;;;;;201.25;121.57;;;;;;;2.73;76.64;93707.22;1822266;78;21075;-51
2021/01/07 06:56:17;;;;;;;179.68;108.72;;;;;;;2.68;76.65;93709.09;1809580;79;21194;-51
2021/01/07 06:58:46;;;;;;;199.50;122.37;;;;;;;2.57;76.72;93709.33;1822287;78;22255;-50
2021/01/07 07:01:16;;;;;;;182.50;111.22;;;;;;;2.49;77.15;93719.40;1809568;79;21543;-51
2021/01/07 07:03:52;;;;;;;184.67;109.00;;;;;;;2.50;77.11;93720.92;1822098;78;21162;-50
2021/01/07 07:06:25;;;;;;;172.93;106.00;;;;;;;2.50;76.99;93727.71;1822268;78;21499;-50
2021/01/07 07:08:53;;;;;;;180.18;110.45;;;;;;;2.45;77.15;93722.18;1808912;79;21622;-51
2021/01/07 07:11:34;;;;;;;173.72;105.67;;;;;;;2.43;77.08;93721.06;1822254;78;21404;-49
2021/01/07 07:14:06;;;;;;;156.87;102.75;;;;;;;2.39;77.29;93719.02;1822120;78;21167;-53
2021/01/07 07:16:36;;;;;;;151.37;92.93;;;;;;;2.40;77.37;93723.26;1822401;78;21178;-50
2021/01/07 07:19:06;;;;;;;158.35;94.25;;;;;;;2.43;77.35;93714.27;1806394;79;21560;-52
2021/01/07 07:21:35;;;;;;;156.95;97.15;;;;;;;2.41;77.40;93724.79;1822183;78;21127;-51
2021/01/07 07:24:09;;;;;;;148.17;92.50;;;;;;;2.43;77.68;93727.84;1822127;78;21371;-51
2021/01/07 07:26:40;;;;;;;155.40;92.33;;;;;;;2.51;77.80;93717.03;1806365;79;21102;-50
2021/01/07 07:29:12;;;;;;;149.55;91.80;;;;;;;2.63;77.71;93720.42;1822212;78;20985;-54
2021/01/07 07:31:45;;;;;;;164.70;102.27;;;;;;;2.72;77.54;93711.13;1806760;79;21484;-50
2021/01/07 07:34:15;;;;;;;172.00;105.80;;;;;;;2.79;77.63;93725.31;1822150;78;21112;-51
2021/01/07 07:36:43;;;;;;;160.75;100.45;;;;;;;2.88;77.47;93722.01;1806405;79;21356;-51
2021/01/07 07:39:11;;;;;;;151.87;97.78;;;;;;;2.98;77.63;93725.84;1822154;78;21500;-51
2021/01/07 07:41:43;;;;;;;150.47;90.87;;;;;;;3.12;77.45;93727.45;1822121;78;21056;-55
2021/01/07 07:44:14;;;;;;;157.82;98.60;;;;;;;3.19;77.04;93723.20;1806515;79;21136;-51
2021/01/07 07:46:43;;;;;;;165.75;100.97;;;;;;;3.24;77.01;93721.34;1822248;78;21063;-51
2021/01/07 07:49:12;;;;;;;155.27;96.32;;;;;;;3.31;76.78;93713.79;1806473;78;21207;-50
2021/01/07 07:51:41;;;;;;;157.72;100.33;;;;;;;3.41;76.61;93724.23;1822037;78;21480;-55
2021/01/07 07:54:12;;;;;;;288.37;153.10;;;;;;;3.49;76.29;93713.50;1806364;79;21053;-50
2021/01/07 07:56:41;;;;;;;217.47;132.95;;;;;;;3.48;75.95;93720.13;1822147;78;21056;-52
2021/01/07 07:59:11;;;;;;;196.75;125.60;;;;;;;3.38;75.84;93721.00;1822198;78;21080;-51
2021/01/07 08:01:48;;;;;;;165.43;102.87;;;;;;;3.28;76.16;93724.73;1822078;78;21358;-51
2021/01/07 08:04:22;;;;;;;162.40;104.80;;;;;;;3.31;76.26;93727.38;1821618;78;21103;-50
2021/01/07 08:06:53;;;;;;;148.50;92.08;;;;;;;3.31;76.08;93714.38;1822249;78;21079;-50
2021/01/07 08:09:27;;;;;;;158.27;98.37;;;;;;;3.30;75.96;93707.41;1776461;80;21278;-50
2021/01/07 08:11:59;;;;;;;181.02;122.15;;;;;;;3.28;76.09;93712.51;1791209;78;21533;-51
2021/01/07 08:14:29;;;;;;;215.72;137.85;;;;;;;3.27;76.41;93719.88;1795913;79;21242;-51
2021/01/07 08:16:59;;;;;;;181.90;119.22;;;;;;;3.31;76.69;93727.38;1819402;78;21083;-52
2021/01/07 08:19:34;;;;;;;164.90;110.22;;;;;;;3.39;76.57;93723.28;1795860;79;21063;-51
2021/01/07 08:22:04;;;;;;;160.60;103.60;;;;;;;3.46;76.61;93727.78;1819454;78;21076;-50
2021/01/07 08:24:33;;;;;;;145.02;92.53;;;;;;;3.48;76.28;93739.16;1795900;80;21103;-51
2021/01/07 08:27:16;;;;;;;131.10;82.30;;;;;;;3.39;76.39;93746.99;1819502;78;21193;-50
2021/01/07 08:29:47;;;;;;;141.77;90.05;;;;;;;3.26;76.81;93742.06;1796067;80;21560;-51
2021/01/07 08:32:18;;;;;;;188.25;110.10;;;;;;;3.19;77.02;93749.00;1819490;78;21171;-51
2021/01/07 08:34:46;;;;;;;197.70;123.35;;;;;;;3.11;77.27;93749.02;1819490;78;21550;-51
2021/01/07 08:37:22;;;;;;;226.67;128.68;;;;;;;3.07;77.64;93743.66;1819488;78;21127;-50
2021/01/07 08:39:50;;;;;;;224.58;128.30;;;;;;;3.20;77.77;93743.77;1795937;78;21433;-52
2021/01/07 08:42:19;;;;;;;201.60;121.80;;;;;;;3.38;77.53;93735.95;1819452;78;21088;-51
2021/01/07 08:44:48;;;;;;;161.82;97.00;;;;;;;3.50;77.38;93725.90;1819565;78;21670;-50
2021/01/07 08:47:21;;;;;;;214.50;122.98;;;;;;;3.61;77.18;93718.83;1752870;80;21126;-52
2021/01/07 08:50:11;;;;;;;217.90;142.18;;;;;;;3.62;76.84;93714.92;1819550;78;21074;-50
2021/01/07 08:52:52;;;;;;;212.42;137.55;;;;;;;3.61;76.86;93716.89;1819472;78;21365;-52
2021/01/07 08:55:21;;;;;;;220.12;130.70;;;;;;;3.68;76.95;93716.70;1795969;79;21151;-52
2021/01/07 08:57:49;;;;;;;173.32;116.67;;;;;;;3.88;76.69;93711.14;1819563;78;21508;-51
2021/01/07 09:00:19;;;;;;;154.47;104.65;;;;;;;4.04;76.30;93713.81;1795854;79;21051;-52
2021/01/07 09:02:49;;;;;;;159.80;107.35;;;;;;;4.18;76.32;93703.88;1815450;78;21059;-55
2021/01/07 09:05:19;;;;;;;155.50;109.63;;;;;;;4.33;75.95;93712.59;1752882;80;23454;-51
2021/01/07 09:07:47;;;;;;;122.55;80.55;;;;;;;4.41;75.87;93707.70;1819341;78;21080;-50
2021/01/07 09:10:25;;;;;;;94.80;62.90;;;;;;;4.48;75.39;93712.35;1800641;79;21092;-50
2021/01/07 09:12:53;;;;;;;180.80;100.72;;;;;;;4.42;75.15;93701.81;1822133;78;21555;-50
2021/01/07 09:15:25;;;;;;;130.82;89.95;;;;;;;4.33;75.17;93692.75;1822029;78;21265;-51
2021/01/07 09:17:56;;;;;;;170.12;104.85;;;;;;;4.33;75.49;93690.03;1806243;79;21331;-51
2021/01/07 09:20:32;;;;;;;165.77;105.47;;;;;;;4.53;75.72;93690.61;1821985;78;21158;-51
2021/01/07 09:23:08;;;;;;;171.75;116.15;;;;;;;4.74;75.22;93689.38;1822069;78;21142;-51
2021/01/07 09:25:37;;;;;;;166.32;106.00;;;;;;;4.80;74.76;93685.52;1822187;78;21540;-51
2021/01/07 09:28:05;;;;;;;161.55;108.45;;;;;;;4.82;74.55;93686.59;1806395;79;21575;-51
2021/01/07 09:30:34;;;;;;;158.60;107.03;;;;;;;4.88;74.39;93679.42;1822032;78;21213;-51
2021/01/07 09:33:02;;;;;;;145.17;95.75;;;;;;;5.03;74.30;93681.87;1821963;78;21179;-52
2021/01/07 09:35:31;;;;;;;155.82;101.92;;;;;;;5.32;74.03;93687.92;1822120;78;21496;-51
2021/01/07 09:38:01;;;;;;;151.47;94.97;;;;;;;5.73;73.59;93686.34;1822003;78;21044;-52
2021/01/07 09:40:30;;;;;;;181.47;106.85;;;;;;;6.16;72.59;93683.08;1806328;79;21059;-52
2021/01/07 09:42:58;;;;;;;203.05;117.57;;;;;;;6.56;71.83;93680.47;1822081;78;21204;-51
2021/01/07 09:45:27;;;;;;;158.10;100.00;;;;;;;7.00;70.95;93676.41;1806239;79;21080;-50
2021/01/07 09:47:56;;;;;;;156.47;98.58;;;;;;;7.34;69.80;93678.38;1822159;78;21120;-53
2021/01/07 09:50:24;;;;;;;175.90;111.75;;;;;;;7.47;68.84;93674.89;1806486;79;21139;-53
2021/01/07 09:52:52;;;;;;;158.22;93.87;;;;;;;7.63;68.79;93665.81;1822184;78;21194;-52
2021/01/07 09:55:21;;;;;;;141.45;93.85;;;;;;;8.03;68.13;93660.97;1822150;78;21278;-51
2021/01/07 09:57:51;;;;;;;122.78;82.85;;;;;;;8.47;66.99;93653.20;1806414;78;21099;-52
2021/01/07 10:00:20;;;;;;;69.12;45.30;;;;;;;8.66;66.49;93651.31;1822303;78;21480;-54
2021/01/07 10:02:48;;;;;;;37.83;25.25;;;;;;;8.69;64.17;93643.56;1806469;79;21087;-52
2021/01/07 10:05:17;;;;;;;34.75;24.15;;;;;;;8.69;63.22;93638.08;1803624;79;21095;-52
2021/01/07 10:07:45;;;;;;;60.50;41.20;;;;;;;8.82;62.32;93623.54;1822139;78;21238;-53
2021/01/07 10:10:13;;;;;;;41.05;30.05;;;;;;;8.94;61.72;93629.45;1806257;79;21281;-53
2021/01/07 10:12:42;;;;;;;11.03;8.63;;;;;;;9.06;60.39;93618.89;1822228;78;21422;-53
2021/01/07 10:15:12;;;;;;;14.33;10.78;;;;;;;9.09;57.76;93616.59;1806388;79;21047;-53
2021/01/07 10:17:40;;;;;;;13.85;10.43;;;;;;;9.27;57.29;93613.75;1822246;78;21504;-51
2021/01/07 10:20:11;;;;;;;12.13;8.65;;;;;;;9.47;54.81;93605.70;1806436;78;21181;-52
2021/01/07 10:22:39;;;;;;;15.53;11.93;;;;;;;9.60;54.50;93600.11;1792317;78;21203;-52
2021/01/07 10:25:10;;;;;;;19.45;12.35;;;;;;;9.45;53.37;93586.20;1806460;79;21508;-51
2021/01/07 10:27:38;;;;;;;17.57;12.30;;;;;;;9.20;54.02;93604.47;1822210;78;21053;-52
2021/01/07 10:30:09;;;;;;;19.67;14.18;;;;;;;9.23;53.80;93600.82;1822219;78;21048;-52
2021/01/07 10:32:37;;;;;;;17.82;13.98;;;;;;;9.23;54.05;93592.59;1806583;79;22157;-54
2021/01/07 10:35:07;;;;;;;13.70;9.33;;;;;;;9.29;53.28;93605.18;1822063;78;21147;-52
2021/01/07 10:37:35;;;;;;;10.93;8.30;;;;;;;9.41;53.39;93606.20;1806386;79;21084;-53
2021/01/07 10:40:07;;;;;;;13.43;9.50;;;;;;;9.65;52.56;93601.46;1822146;78;21208;-54
2021/01/07 10:42:35;;;;;;;8.23;7.20;;;;;;;9.92;53.27;93612.23;1806419;79;21111;-53
2021/01/07 10:45:05;;;;;;;9.08;7.45;;;;;;;10.31;51.27;93608.28;1822265;78;22325;-52
2021/01/07 10:47:37;;;;;;;13.18;8.53;;;;;;;10.33;49.41;93601.69;1822059;78;21138;-52
2021/01/07 10:50:05;;;;;;;7.83;5.55;;;;;;;10.15;48.67;93605.98;1822110;78;21130;-51
2021/01/07 10:52:41;;;;;;;8.70;5.55;;;;;;;10.21;46.38;93606.83;1806359;79;21131;-53
2021/01/07 10:55:24;;;;;;;4.30;3.90;;;;;;;10.44;45.33;93611.49;1806319;79;21067;-53
2021/01/07 10:58:21;;;;;;;4.50;4.10;;;;;;;10.51;44.84;93598.77;1822273;78;21375;-51
2021/01/07 11:01:28;;;;;;;6.75;4.90;;;;;;;10.41;44.85;93613.82;1822103;78;21052;-53
2021/01/07 11:04:33;;;;;;;5.70;4.95;;;;;;;10.14;45.34;93618.20;1822158;78;21551;-51
2021/01/07 11:07:13;;;;;;;7.05;5.30;;;;;;;10.06;45.86;93621.16;1822257;78;21032;-51
2021/01/07 11:09:45;;;;;;;5.87;4.67;;;;;;;9.72;47.85;93621.09;1806554;79;21064;-52
2021/01/07 11:12:27;;;;;;;4.67;4.12;;;;;;;9.73;47.51;93626.73;1825353;78;21158;-52
2021/01/07 11:15:05;;;;;;;5.55;4.30;;;;;;;9.68;47.19;93638.36;1825362;78;21091;-52
2021/01/07 11:17:35;;;;;;;3.95;3.62;;;;;;;9.72;48.09;93628.55;1812431;79;21142;-52
2021/01/07 11:20:06;;;;;;;3.60;3.30;;;;;;;9.89;47.92;93641.42;1825268;78;21139;-52
2021/01/07 11:22:35;;;;;;;5.35;4.00;;;;;;;10.10;46.79;93647.83;1785613;79;21143;-52
2021/01/07 11:25:07;;;;;;;6.30;4.50;;;;;;;10.41;46.21;93650.94;1825211;78;21554;-54
2021/01/07 11:27:36;;;;;;;5.30;3.87;;;;;;;10.53;44.49;93646.53;1812211;78;21131;-51